Time;durP1;ratioP1;P1;durP2;ratioP2;P2;SDS_P1;SDS_P2;PMS_P1;PMS_P2;Temp;Humidity;BMP_temperature;BMP_pressure;BME280_temperature;BME280_humidity;BME280_pressure;Samples;Min_cycle;Max_cycle;Signal;HPM_P1;HPM_P2
2021/09/13 00:00:16;;;;;;;10.63;9.00;;;;;;;20.70;61.97;100763.94;5041799;27;102330;-50
2021/09/13 00:02:42;;;;;;;9.45;8.55;;;;;;;20.70;61.96;100769.47;5045293;27;102925;-50
2021/09/13 00:05:11;;;;;;;9.23;8.02;;;;;;;20.69;62.08;100762.31;5036705;27;103978;-50
2021/09/13 00:07:39;;;;;;;9.10;8.20;;;;;;;20.70;61.99;100769.47;5041535;27;102518;-51
2021/09/13 00:10:09;;;;;;;10.50;8.25;;;;;;;20.70;62.16;100763.94;5031643;27;102768;-50
2021/09/13 00:12:35;;;;;;;8.60;7.80;;;;;;;20.70;62.10;100766.72;5043207;27;102198;-50
2021/09/13 00:15:04;;;;;;;9.65;8.25;;;;;;;20.70;61.96;100763.13;5043269;27;105500;-49
2021/09/13 00:17:30;;;;;;;9.65;8.18;;;;;;;20.69;62.12;100761.50;5044889;27;102443;-50
2021/09/13 00:19:58;;;;;;;9.43;8.52;;;;;;;20.69;62.06;100762.31;5032053;27;103282;-50
2021/09/13 00:22:25;;;;;;;8.65;7.85;;;;;;;20.69;62.09;100765.06;5034053;27;102259;-50
2021/09/13 00:24:52;;;;;;;9.82;8.40;;;;;;;20.69;62.09;100759.53;5037711;27;104071;-50
2021/09/13 00:27:20;;;;;;;9.40;8.32;;;;;;;20.68;62.03;100755.16;5050423;27;102200;-50
2021/09/13 00:29:49;;;;;;;9.05;8.15;;;;;;;20.69;62.16;100756.78;5042074;27;102252;-50
2021/09/13 00:32:15;;;;;;;9.25;8.25;;;;;;;20.69;61.97;100756.78;5043120;27;102630;-50
2021/09/13 00:34:43;;;;;;;9.18;8.23;;;;;;;20.69;62.16;100756.78;5048369;27;104068;-50
2021/09/13 00:37:10;;;;;;;8.77;7.88;;;;;;;20.69;62.17;100755.97;5030021;27;102179;-50
2021/09/13 00:39:40;;;;;;;9.10;8.20;;;;;;;20.68;62.21;100755.16;5045480;27;105488;-50
2021/09/13 00:42:09;;;;;;;10.35;8.32;;;;;;;20.69;62.24;100751.25;5041797;27;102782;-50
2021/09/13 00:44:37;;;;;;;9.10;8.18;;;;;;;20.68;62.21;100755.16;5036833;27;104074;-50
2021/09/13 00:47:04;;;;;;;9.88;8.60;;;;;;;20.68;62.26;100757.94;5035750;27;102301;-50
2021/09/13 00:49:32;;;;;;;8.73;7.82;;;;;;;20.68;62.25;100755.16;5042597;27;102478;-50
2021/09/13 00:51:58;;;;;;;9.70;8.55;;;;;;;20.68;62.29;100760.69;5044541;27;102821;-50
2021/09/13 00:54:25;;;;;;;8.50;7.50;;;;;;;20.69;62.40;100755.97;5044885;27;103990;-50
2021/09/13 00:56:52;;;;;;;9.88;8.52;;;;;;;20.68;62.23;100751.59;5046903;27;102389;-50
2021/09/13 00:59:20;;;;;;;9.13;8.23;;;;;;;20.68;62.22;100757.94;5043130;27;102482;-50
2021/09/13 01:01:49;;;;;;;9.07;8.18;;;;;;;20.68;62.34;100752.41;5034750;27;103602;-50
2021/09/13 01:04:16;;;;;;;9.95;7.95;;;;;;;20.68;62.32;100749.63;5031318;27;102849;-50
2021/09/13 01:06:42;;;;;;;9.18;8.10;;;;;;;20.68;62.40;100755.16;5046266;27;103458;-50
2021/09/13 01:09:09;;;;;;;8.65;7.72;;;;;;;20.67;62.29;100756.31;5036983;27;106077;-50
2021/09/13 01:11:37;;;;;;;8.57;7.68;;;;;;;20.68;62.37;100760.69;5039788;27;102604;-50
2021/09/13 01:14:06;;;;;;;9.30;8.38;;;;;;;20.68;62.20;100762.66;5046755;27;103942;-50
2021/09/13 01:16:33;;;;;;;8.43;7.63;;;;;;;20.67;62.26;100764.63;5045188;27;102441;-50
2021/09/13 01:19:01;;;;;;;9.60;8.27;;;;;;;20.67;62.15;100764.63;4990731;27;1438717;-51
2021/09/13 01:21:31;;;;;;;9.03;8.13;;;;;;;20.67;62.52;100764.63;5042148;27;102670;-50
2021/09/13 01:24:00;;;;;;;8.63;7.82;;;;;;;20.67;62.60;100763.81;5041888;27;103986;-50
2021/09/13 01:26:26;;;;;;;9.33;8.33;;;;;;;20.68;62.41;100755.16;5040102;27;102425;-50
2021/09/13 01:28:53;;;;;;;9.60;8.18;;;;;;;20.67;62.30;100759.09;5033801;27;102566;-50
2021/09/13 01:31:19;;;;;;;8.95;8.05;;;;;;;20.66;62.53;100771.28;5049415;27;102118;-50
2021/09/13 01:33:46;;;;;;;8.98;8.07;;;;;;;20.67;62.54;100775.69;5044142;27;103939;-50
2021/09/13 01:36:17;;;;;;;8.75;7.82;;;;;;;20.67;62.61;100775.69;5045852;27;102470;-50
2021/09/13 01:38:44;;;;;;;8.52;7.50;;;;;;;20.68;62.54;100773.72;5047480;27;102168;-50
2021/09/13 01:41:12;;;;;;;9.18;8.15;;;;;;;20.67;62.58;100775.69;5046184;27;102736;-50
2021/09/13 01:43:38;;;;;;;9.18;8.20;;;;;;;20.67;62.34;100775.69;5037560;27;103974;-50
2021/09/13 01:46:05;;;;;;;8.45;7.65;;;;;;;20.66;62.64;100779.56;5041285;27;102451;-50
2021/09/13 01:48:32;;;;;;;9.07;8.18;;;;;;;20.67;62.41;100780.41;5036222;27;102543;-50
2021/09/13 01:50:59;;;;;;;8.82;8.00;;;;;;;20.67;62.61;100775.69;5048243;27;102744;-50
2021/09/13 01:53:26;;;;;;;10.45;8.27;;;;;;;20.67;62.60;100781.22;5038194;27;105239;-50
2021/09/13 01:55:53;;;;;;;8.68;7.78;;;;;;;20.67;62.45;100781.22;5046484;27;102414;-50
2021/09/13 01:58:21;;;;;;;9.15;8.13;;;;;;;20.66;62.53;100787.88;5047048;27;102610;-50
2021/09/13 02:00:47;;;;;;;9.27;8.38;;;;;;;20.66;62.62;100776.81;5050095;27;102251;-50
2021/09/13 02:03:14;;;;;;;9.50;8.10;;;;;;;20.66;62.48;100771.28;5038415;27;103909;-50
2021/09/13 02:05:41;;;;;;;9.45;8.43;;;;;;;20.67;62.51;100772.13;5045092;27;102382;-50
2021/09/13 02:08:07;;;;;;;10.60;9.20;;;;;;;20.66;62.47;100776.81;5034719;27;103132;-50
2021/09/13 02:10:34;;;;;;;9.60;8.60;;;;;;;20.66;62.57;100779.56;5045170;27;102240;-50
2021/09/13 02:13:01;;;;;;;9.65;8.48;;;;;;;20.66;62.52;100776.81;5043268;27;104324;-50
2021/09/13 02:15:29;;;;;;;9.27;8.23;;;;;;;20.66;62.74;100762.97;5048719;27;102718;-49
2021/09/13 02:17:56;;;;;;;10.37;8.10;;;;;;;20.65;62.74;100772.44;5044334;27;102244;-50
2021/09/13 02:20:24;;;;;;;9.63;8.63;;;;;;;20.66;62.76;100773.25;5036174;27;102259;-50
2021/09/13 02:22:50;;;;;;;10.25;8.95;;;;;;;20.65;62.86;100772.44;5044511;27;103695;-50
2021/09/13 02:25:17;;;;;;;8.98;8.07;;;;;;;20.66;62.56;100778.78;5036391;27;102495;-50
2021/09/13 02:27:46;;;;;;;9.75;8.52;;;;;;;20.66;62.55;100776.81;5047677;27;102527;-49
2021/09/13 02:30:13;;;;;;;9.68;8.45;;;;;;;20.66;62.68;100779.56;5048849;27;102265;-50
2021/09/13 02:32:42;;;;;;;9.35;8.38;;;;;;;20.65;62.74;100777.97;5036635;27;104286;-51
2021/09/13 02:35:10;;;;;;;10.98;9.77;;;;;;;20.65;62.66;100777.97;5043575;27;102144;-50
2021/09/13 02:37:38;;;;;;;;;;;;;;;20.66;62.98;100774.03;5041296;27;102484;-50
2021/09/13 02:40:06;;;;;;;9.82;8.35;;;;;;;20.66;62.73;100778.78;5034717;27;102556;-50
2021/09/13 02:42:33;;;;;;;12.45;9.18;;;;;;;20.64;62.93;100771.63;5047218;27;103994;-50
2021/09/13 02:45:00;;;;;;;11.25;9.57;;;;;;;20.65;62.52;100766.91;5046397;27;102511;-50
2021/09/13 02:47:27;;;;;;;11.95;9.38;;;;;;;20.66;62.85;100778.78;5045384;27;104209;-50
2021/09/13 02:49:55;;;;;;;9.82;8.90;;;;;;;20.63;62.81;100781.06;5037852;27;102276;-50
2021/09/13 02:52:22;;;;;;;10.70;9.60;;;;;;;20.64;62.94;100779.13;5042152;27;103889;-50
2021/09/13 02:54:49;;;;;;;10.00;8.80;;;;;;;20.64;62.74;100771.63;5040546;27;102178;-50
2021/09/13 02:57:15;;;;;;;11.48;9.57;;;;;;;20.65;62.78;100783.50;5042496;27;102025;-51
2021/09/13 02:59:42;;;;;;;11.90;9.20;;;;;;;20.65;62.93;100780.72;5040317;27;102157;-50
2021/09/13 03:02:09;;;;;;;11.95;9.75;;;;;;;20.65;62.74;100772.44;5036726;27;103904;-50
2021/09/13 03:04:35;;;;;;;10.13;9.00;;;;;;;20.64;62.89;100781.88;5046127;27;102212;-50
2021/09/13 03:07:04;;;;;;;12.38;10.00;;;;;;;20.64;62.92;100779.13;5044426;27;102695;-50
2021/09/13 03:09:31;;;;;;;;;;;;;;;20.64;63.18;100781.88;5047488;27;102523;-50
2021/09/13 03:11:57;;;;;;;12.13;9.35;;;;;;;20.64;62.92;100779.13;5037067;27;103189;-50
2021/09/13 03:14:24;;;;;;;10.60;9.50;;;;;;;20.64;62.92;100779.91;5041158;27;102695;-50
2021/09/13 03:16:51;;;;;;;11.52;9.90;;;;;;;20.64;62.84;100779.13;5041928;27;102665;-50
2021/09/13 03:19:18;;;;;;;10.77;9.68;;;;;;;20.63;62.87;100778.31;5042983;27;102981;-50
2021/09/13 03:21:45;;;;;;;12.30;9.73;;;;;;;20.63;62.95;100783.03;5041445;27;103950;-50
2021/09/13 03:24:13;;;;;;;11.18;9.05;;;;;;;20.64;62.87;100788.22;5040230;27;101962;-50
2021/09/13 03:26:40;;;;;;;9.57;8.55;;;;;;;20.65;62.89;100786.25;5046816;27;102629;-50
2021/09/13 03:29:09;;;;;;;10.57;9.15;;;;;;;20.63;62.96;100783.84;5048753;27;102361;-50
2021/09/13 03:31:36;;;;;;;11.32;9.70;;;;;;;20.63;63.04;100791.34;5042338;27;104061;-50
2021/09/13 03:34:03;;;;;;;11.43;10.07;;;;;;;20.64;63.18;100792.94;5039466;27;102545;-50
2021/09/13 03:36:29;;;;;;;9.88;8.88;;;;;;;20.62;63.07;100784.97;5036450;27;102530;-50
2021/09/13 03:38:56;;;;;;;10.25;9.15;;;;;;;20.64;63.01;100790.19;5052079;27;102559;-50
2021/09/13 03:41:24;;;;;;;10.93;9.73;;;;;;;20.64;62.89;100792.94;5046829;27;103428;-50
2021/09/13 03:43:51;;;;;;;10.20;9.17;;;;;;;20.63;63.18;100791.34;5047917;27;102397;-50
2021/09/13 03:46:17;;;;;;;11.60;9.18;;;;;;;20.63;62.98;100794.09;5040184;27;103492;-50
2021/09/13 03:48:44;;;;;;;11.05;9.63;;;;;;;20.63;63.04;100792.13;5047129;27;102130;-50
2021/09/13 03:51:11;;;;;;;10.60;9.50;;;;;;;20.63;62.96;100783.03;5042573;27;103719;-50
2021/09/13 03:53:38;;;;;;;10.27;9.10;;;;;;;20.63;63.21;100785.81;5038670;27;102465;-50
2021/09/13 03:56:05;;;;;;;10.20;9.10;;;;;;;20.62;63.12;100790.50;5034190;27;102481;-51
2021/09/13 03:58:32;;;;;;;11.75;9.52;;;;;;;20.64;62.93;100793.75;5044559;27;102422;-50
2021/09/13 04:00:59;;;;;;;10.30;9.30;;;;;;;20.62;63.21;100796.03;5032419;27;103926;-50
2021/09/13 04:03:37;;;;;;;10.57;9.45;;;;;;;20.62;63.17;100796.03;5034944;27;102466;-50
2021/09/13 04:06:04;;;;;;;9.85;8.85;;;;;;;20.63;63.20;100791.34;5033885;27;102616;-51
2021/09/13 04:11:16;;;;;;;14.55;8.85;;;;;;;20.63;63.20;100796.88;5044872;27;103885;-50
2021/09/13 04:13:45;;;;;;;10.10;8.45;;;;;;;20.63;63.20;100796.88;5029897;27;102248;-50
2021/09/13 04:16:12;;;;;;;10.70;8.52;;;;;;;20.63;62.90;100799.63;5046212;27;103822;-50
2021/09/13 04:18:40;;;;;;;9.40;8.50;;;;;;;20.63;62.99;100796.88;5040188;27;102224;-50
2021/09/13 04:21:06;;;;;;;9.23;8.27;;;;;;;20.63;62.81;100799.63;5040978;27;104017;-50
2021/09/13 04:23:33;;;;;;;9.93;8.80;;;;;;;20.63;62.98;100807.94;5047460;27;102165;-49
2021/09/13 04:25:59;;;;;;;9.40;7.72;;;;;;;20.63;62.69;100799.63;5041671;27;102411;-50
2021/09/13 04:28:26;;;;;;;8.80;7.90;;;;;;;20.63;62.56;100796.88;5036112;27;110681;-49
2021/09/13 04:30:54;;;;;;;7.60;6.90;;;;;;;20.64;62.86;100804.00;5039095;27;105060;-50
2021/09/13 04:33:21;;;;;;;7.90;7.15;;;;;;;20.65;62.72;100805.63;5032929;27;102630;-50
2021/09/13 04:35:48;;;;;;;8.38;7.57;;;;;;;20.64;62.75;100804.00;5042768;27;103392;-50
2021/09/13 04:38:15;;;;;;;8.07;7.28;;;;;;;20.65;62.54;100811.16;5042810;27;102389;-50
2021/09/13 04:40:42;;;;;;;9.25;7.72;;;;;;;20.65;62.64;100811.16;5029877;27;103918;-50
2021/09/13 04:43:09;;;;;;;9.23;8.20;;;;;;;20.65;62.77;100811.16;5044793;27;102291;-50
2021/09/13 04:45:35;;;;;;;9.38;7.95;;;;;;;20.67;62.87;100813.59;5053323;27;103457;-50
2021/09/13 04:48:05;;;;;;;9.38;8.48;;;;;;;20.66;62.64;100811.94;5044941;27;102179;-50
2021/09/13 04:50:31;;;;;;;;;;;;;;;20.67;62.92;100808.06;5038118;27;104059;-50
2021/09/13 04:52:58;;;;;;;8.82;7.88;;;;;;;20.67;62.80;100808.88;5038708;27;102692;-50
2021/09/13 04:55:24;;;;;;;9.45;7.95;;;;;;;20.66;62.64;100815.53;5046825;27;102550;-50
2021/09/13 04:57:51;;;;;;;9.63;8.63;;;;;;;20.66;62.74;100818.28;5035344;27;102637;-50
2021/09/13 05:00:21;;;;;;;9.60;8.60;;;;;;;20.67;62.65;100814.41;5038830;27;103883;-50
2021/09/13 05:02:48;;;;;;;8.02;7.22;;;;;;;20.68;62.73;100816.00;5039882;27;102558;-50
2021/09/13 05:05:16;;;;;;;8.38;7.47;;;;;;;20.68;62.67;100820.72;5039884;27;103087;-50
2021/09/13 05:07:44;;;;;;;8.23;7.43;;;;;;;20.68;62.41;100824.31;5042866;27;102366;-50
2021/09/13 05:10:11;;;;;;;7.80;7.10;;;;;;;20.69;62.67;100823.16;5037712;27;103931;-50
2021/09/13 05:12:38;;;;;;;7.95;7.25;;;;;;;20.69;62.12;100823.16;5043756;27;102527;-50
2021/09/13 05:15:09;;;;;;;8.63;7.82;;;;;;;20.69;62.45;100825.09;5042773;27;102546;-50
2021/09/13 05:17:36;;;;;;;9.82;7.72;;;;;;;20.69;62.59;100812.09;5032803;27;102357;-50
2021/09/13 05:20:16;;;;;;;8.27;7.47;;;;;;;20.69;62.42;100823.16;5044669;27;103760;-50
2021/09/13 05:22:43;;;;;;;10.18;7.43;;;;;;;20.69;62.48;100811.28;5046325;27;102359;-50
2021/09/13 05:25:10;;;;;;;7.90;7.07;;;;;;;20.69;62.30;100812.09;5045077;27;102599;-50
2021/09/13 05:27:36;;;;;;;8.32;7.50;;;;;;;20.70;62.47;100812.88;5045516;27;102245;-50
2021/09/13 05:30:04;;;;;;;8.20;7.35;;;;;;;20.71;62.47;100811.75;5045012;27;104453;-50
2021/09/13 05:32:31;;;;;;;8.77;7.88;;;;;;;20.70;62.31;100813.72;5033033;27;102384;-50
2021/09/13 05:34:57;;;;;;;8.88;7.97;;;;;;;20.70;62.53;100813.72;5044363;27;102216;-50
2021/09/13 05:37:25;;;;;;;7.75;7.00;;;;;;;20.71;62.49;100807.03;5044451;27;102530;-50
2021/09/13 05:39:52;;;;;;;8.25;7.55;;;;;;;20.71;62.46;100815.34;5030641;27;103928;-50
2021/09/13 05:42:20;;;;;;;8.75;7.85;;;;;;;20.72;62.46;100816.13;5037915;27;102598;-51
2021/09/13 05:44:47;;;;;;;8.98;8.18;;;;;;;20.73;62.41;100818.56;5042973;27;102289;-50
2021/09/13 05:47:14;;;;;;;9.00;8.10;;;;;;;20.73;62.53;100818.56;5041801;27;102163;-50
2021/09/13 05:49:43;;;;;;;8.10;7.30;;;;;;;20.73;62.30;100824.09;5047897;27;103852;-50
2021/09/13 05:52:09;;;;;;;8.30;7.50;;;;;;;20.74;62.44;100824.91;5049848;27;102150;-50
2021/09/13 05:54:37;;;;;;;7.65;6.90;;;;;;;20.74;62.39;100819.38;5037258;27;102425;-50
2021/09/13 05:57:04;;;;;;;8.15;7.40;;;;;;;20.75;62.29;100812.72;5046901;27;102711;-50
2021/09/13 05:59:30;;;;;;;8.73;7.93;;;;;;;20.75;62.51;100821.00;5033314;27;104148;-50
2021/09/13 06:01:57;;;;;;;8.90;7.57;;;;;;;20.76;62.52;100828.94;5046991;27;102745;-50
2021/09/13 06:04:24;;;;;;;8.32;7.53;;;;;;;20.76;62.37;100817.88;5046927;27;102426;-50
2021/09/13 06:06:50;;;;;;;9.45;7.22;;;;;;;20.77;62.54;100827.00;5038298;27;102724;-50
2021/09/13 06:09:18;;;;;;;8.82;7.63;;;;;;;20.76;62.69;100823.41;5046958;27;104192;-50
2021/09/13 06:11:46;;;;;;;8.40;7.60;;;;;;;20.77;62.53;100827.00;5039656;27;102479;-50
2021/09/13 06:14:13;;;;;;;8.17;7.37;;;;;;;20.78;62.51;100825.88;5040721;27;102587;-51
2021/09/13 06:16:39;;;;;;;9.15;8.25;;;;;;;20.78;62.47;100826.66;5044712;27;102237;-50
2021/09/13 06:19:09;;;;;;;9.52;8.55;;;;;;;20.79;62.40;100830.25;5039078;27;105047;-50
2021/09/13 06:21:35;;;;;;;9.38;8.07;;;;;;;20.78;62.51;100825.88;5046188;27;102131;-50
2021/09/13 06:24:02;;;;;;;8.48;7.65;;;;;;;20.78;62.63;100832.19;5046512;27;102038;-50
2021/09/13 06:26:28;;;;;;;9.60;8.52;;;;;;;20.79;62.31;100831.03;5048422;27;102312;-50
2021/09/13 06:28:56;;;;;;;10.00;7.90;;;;;;;20.79;62.62;100835.78;5047147;27;103733;-50
2021/09/13 06:31:26;;;;;;;8.57;7.78;;;;;;;20.80;62.26;100834.63;5048003;27;102575;-50
2021/09/13 06:33:52;;;;;;;7.70;7.00;;;;;;;20.81;62.25;100830.72;5032431;27;104087;-50
2021/09/13 06:36:19;;;;;;;8.05;7.18;;;;;;;20.80;62.54;100838.19;5055270;27;102418;-50
2021/09/13 06:38:46;;;;;;;8.77;7.95;;;;;;;20.81;62.54;100836.25;5045363;27;104032;-50
2021/09/13 06:41:13;;;;;;;7.75;7.05;;;;;;;20.81;62.42;100842.59;5046296;27;102489;-50
2021/09/13 06:43:43;;;;;;;9.02;8.23;;;;;;;20.82;62.38;100832.34;5037470;27;102511;-50
2021/09/13 06:46:13;;;;;;;9.30;8.05;;;;;;;20.82;62.38;100841.44;5046874;27;103075;-49
2021/09/13 06:48:41;;;;;;;9.10;8.20;;;;;;;20.82;62.43;100838.66;5035945;27;103484;-50
2021/09/13 06:51:08;;;;;;;8.43;7.57;;;;;;;20.83;62.26;100843.03;5052196;27;102861;-50
2021/09/13 06:53:35;;;;;;;10.85;8.13;;;;;;;20.83;62.46;100840.28;5051227;27;102436;-49
2021/09/13 06:56:04;;;;;;;9.48;8.55;;;;;;;20.84;62.32;100841.91;5045299;27;102621;-49
2021/09/13 06:58:32;;;;;;;9.07;8.13;;;;;;;20.85;62.47;100849.06;5050017;27;103833;-49
2021/09/13 07:00:59;;;;;;;8.85;7.95;;;;;;;20.85;62.49;100854.59;5039671;27;102561;-50
2021/09/13 07:03:27;;;;;;;8.48;7.72;;;;;;;20.86;62.49;100853.44;5043204;27;102290;-50
2021/09/13 07:05:54;;;;;;;10.48;8.55;;;;;;;20.86;62.39;100850.69;5035788;27;103510;-50
2021/09/13 07:08:21;;;;;;;8.70;7.88;;;;;;;20.87;62.50;100852.28;5045619;27;103938;-50
2021/09/13 07:10:48;;;;;;;9.18;8.27;;;;;;;20.88;62.42;100853.13;5038103;27;102507;-50
2021/09/13 07:13:16;;;;;;;9.20;8.30;;;;;;;20.88;62.44;100853.94;5041941;27;102799;-50
2021/09/13 07:15:43;;;;;;;9.50;8.25;;;;;;;20.90;62.47;100858.31;5039357;27;102350;-50
2021/09/13 07:18:09;;;;;;;9.10;8.20;;;;;;;20.90;62.41;100850.81;5036745;27;103958;-50
2021/09/13 07:20:37;;;;;;;8.82;8.02;;;;;;;20.91;62.42;100857.16;5036337;27;102237;-50
2021/09/13 07:23:04;;;;;;;9.68;8.68;;;;;;;20.91;62.42;100854.38;5044703;27;102395;-50
2021/09/13 07:25:30;;;;;;;11.38;7.82;;;;;;;20.92;62.58;100853.25;5031646;27;102691;-50
2021/09/13 07:27:57;;;;;;;8.88;7.88;;;;;;;20.93;62.55;100854.88;5045444;27;103924;-50
2021/09/13 07:30:26;;;;;;;11.32;8.30;;;;;;;20.93;62.43;100857.63;5041541;27;103057;-50
2021/09/13 07:32:53;;;;;;;9.02;8.13;;;;;;;20.95;62.59;100858.09;5036315;27;103498;-50
2021/09/13 07:35:19;;;;;;;9.70;8.63;;;;;;;20.96;62.83;100857.75;5033532;27;102389;-50
2021/09/13 07:37:47;;;;;;;9.07;8.18;;;;;;;20.98;62.58;100865.72;5036574;27;103707;-50
2021/09/13 07:40:14;;;;;;;8.63;7.80;;;;;;;20.97;62.36;100856.59;5039448;27;102507;-50
2021/09/13 07:42:41;;;;;;;10.27;9.18;;;;;;;20.99;62.59;100859.03;5039575;27;102580;-50
2021/09/13 07:45:09;;;;;;;10.05;8.55;;;;;;;21.00;62.65;100857.91;5035131;27;102238;-50
2021/09/13 07:47:35;;;;;;;9.60;8.07;;;;;;;20.99;62.60;100848.78;5033103;27;104071;-50
2021/09/13 07:50:03;;;;;;;9.50;8.60;;;;;;;21.00;62.64;100860.66;5047584;27;102461;-50
2021/09/13 07:52:30;;;;;;;9.73;8.75;;;;;;;21.02;62.72;100861.13;5046497;27;102470;-50
2021/09/13 07:54:58;;;;;;;9.63;8.43;;;;;;;21.03;62.69;100865.53;5045525;27;102659;-50
2021/09/13 07:57:25;;;;;;;9.25;8.32;;;;;;;21.03;62.60;100860.00;5036109;27;103658;-50
2021/09/13 07:59:51;;;;;;;11.38;8.82;;;;;;;21.04;62.77;100862.41;5042028;27;102562;-50
2021/09/13 08:02:18;;;;;;;9.40;8.32;;;;;;;21.04;62.58;100867.94;5035975;27;102589;-50
2021/09/13 08:04:44;;;;;;;12.07;8.95;;;;;;;21.05;62.76;100863.22;5036031;27;102457;-50
2021/09/13 08:07:11;;;;;;;10.63;7.80;;;;;;;21.06;62.83;100865.66;5045302;27;104223;-50
2021/09/13 08:09:38;;;;;;;10.93;8.80;;;;;;;21.07;62.93;100866.47;5041772;27;102125;-50
2021/09/13 08:12:06;;;;;;;9.70;8.70;;;;;;;21.08;62.85;100868.06;5037093;27;102573;-50
2021/09/13 08:14:33;;;;;;;9.98;8.98;;;;;;;21.09;62.76;100858.63;5046508;27;102974;-50
2021/09/13 08:17:00;;;;;;;10.77;8.77;;;;;;;21.10;62.78;100866.59;5041763;27;103907;-50
2021/09/13 08:19:26;;;;;;;10.02;8.45;;;;;;;21.11;62.78;100870.16;5044260;27;102488;-50
2021/09/13 08:21:53;;;;;;;9.65;8.65;;;;;;;21.11;62.83;100867.41;5045634;27;102864;-50
2021/09/13 08:24:20;;;;;;;10.18;8.20;;;;;;;21.12;62.79;100866.25;5043945;27;102729;-50
2021/09/13 08:26:46;;;;;;;9.15;8.25;;;;;;;21.12;62.70;100863.47;5045449;27;102728;-50
2021/09/13 08:29:15;;;;;;;10.82;8.57;;;;;;;21.14;62.80;100861.19;5041685;27;102158;-50
2021/09/13 08:31:42;;;;;;;10.15;9.07;;;;;;;21.15;62.89;100857.28;5041022;27;102809;-50
2021/09/13 08:34:09;;;;;;;10.20;9.07;;;;;;;21.15;62.70;100865.56;5044312;27;102489;-50
2021/09/13 08:36:35;;;;;;;9.32;7.90;;;;;;;21.15;62.65;100862.81;5047134;27;103847;-50
2021/09/13 08:39:03;;;;;;;8.80;7.93;;;;;;;21.17;62.83;100865.22;5045635;27;102733;-50
2021/09/13 08:41:32;;;;;;;9.07;8.18;;;;;;;21.17;62.68;100866.06;5047384;27;101996;-50
2021/09/13 08:43:58;;;;;;;;;;;;;;;21.17;62.87;100863.28;5052289;27;102802;-50
2021/09/13 08:49:07;;;;;;;9.70;8.75;;;;;;;21.19;62.70;100860.97;5047615;27;102338;-50
2021/09/13 08:51:34;;;;;;;9.35;7.68;;;;;;;21.19;62.96;100858.22;5042746;27;102125;-50
2021/09/13 08:54:09;;;;;;;11.27;7.65;;;;;;;21.20;62.63;100865.34;5040980;27;102142;-50
2021/09/13 08:56:43;;;;;;;9.40;7.75;;;;;;;21.20;63.04;100862.59;5034105;27;104022;-50
2021/09/13 08:59:13;;;;;;;10.77;7.93;;;;;;;21.20;62.68;100851.50;5042583;27;102489;-50
2021/09/13 09:01:43;;;;;;;10.10;8.75;;;;;;;21.21;62.68;100855.91;5038647;27;102335;-49
2021/09/13 09:04:10;;;;;;;9.20;7.75;;;;;;;21.22;62.74;100851.19;5041142;27;102640;-50
2021/09/13 09:06:40;;;;;;;10.13;7.90;;;;;;;21.23;62.70;100855.56;5035234;27;103908;-50
2021/09/13 09:09:09;;;;;;;8.20;7.28;;;;;;;21.23;62.56;100853.59;5044286;27;103717;-50
2021/09/13 09:11:56;;;;;;;8.27;7.45;;;;;;;21.23;62.68;100853.59;5040048;27;103750;-50
2021/09/13 09:14:34;;;;;;;8.27;7.45;;;;;;;21.24;62.66;100848.88;5039797;27;102501;-50
2021/09/13 09:17:05;;;;;;;9.95;7.97;;;;;;;21.24;62.70;100844.19;5044610;27;103985;-50
2021/09/13 09:19:32;;;;;;;9.27;8.27;;;;;;;21.24;62.62;100844.19;5055280;27;102618;-50
2021/09/13 09:22:19;;;;;;;9.18;8.23;;;;;;;21.25;62.75;100845.78;5044048;27;102482;-50
2021/09/13 09:24:48;;;;;;;12.05;8.10;;;;;;;21.25;62.59;100842.22;5043957;27;102453;-50
2021/09/13 09:27:15;;;;;;;9.23;8.27;;;;;;;21.26;62.60;100843.81;5042955;27;103580;-50
2021/09/13 09:29:42;;;;;;;8.65;7.65;;;;;;;21.26;62.59;100847.41;5041449;27;103215;-50
2021/09/13 09:32:18;;;;;;;9.88;8.50;;;;;;;21.27;62.83;100849.00;5041475;27;102720;-50
2021/09/13 09:34:45;;;;;;;9.13;8.23;;;;;;;21.25;62.59;100845.78;5049605;27;102217;-50
2021/09/13 09:37:12;;;;;;;9.80;8.30;;;;;;;21.27;62.58;100843.47;5046093;27;103683;-50
2021/09/13 09:39:41;;;;;;;11.25;8.68;;;;;;;21.28;62.68;100845.09;5047499;27;102480;-50
2021/09/13 09:42:11;;;;;;;8.90;8.00;;;;;;;21.28;62.63;100845.09;5045670;27;102999;-50
2021/09/13 09:44:42;;;;;;;9.77;7.93;;;;;;;21.28;62.86;100839.56;5043295;27;102448;-50
2021/09/13 09:47:13;;;;;;;10.00;8.43;;;;;;;21.28;62.69;100847.88;5044956;27;103991;-50
2021/09/13 09:49:45;;;;;;;8.85;7.95;;;;;;;21.28;62.62;100845.09;5048686;27;102305;-50
2021/09/13 09:52:25;;;;;;;9.32;7.82;;;;;;;21.28;62.80;100845.09;5047125;27;102518;-50
2021/09/13 09:55:09;;;;;;;9.43;8.27;;;;;;;21.28;62.63;100845.09;5052162;27;102331;-50
2021/09/13 09:57:36;;;;;;;9.20;8.30;;;;;;;21.27;62.71;100849.00;5037316;27;102980;-50
2021/09/13 10:00:18;;;;;;;9.30;8.40;;;;;;;21.28;62.77;100845.09;5049064;27;102789;-50
2021/09/13 10:02:46;;;;;;;9.02;8.13;;;;;;;21.28;62.65;100842.34;5050025;27;102481;-50
2021/09/13 10:05:14;;;;;;;9.35;8.35;;;;;;;21.27;62.56;100843.47;5037041;27;102619;-50
2021/09/13 10:07:41;;;;;;;9.07;8.18;;;;;;;21.28;62.48;100834.03;5053107;27;103835;-50
2021/09/13 10:10:08;;;;;;;8.90;8.00;;;;;;;21.28;62.76;100838.75;5046291;27;102257;-53
2021/09/13 10:12:35;;;;;;;11.10;8.48;;;;;;;21.27;62.60;100837.94;5043897;27;102275;-50
2021/09/13 10:15:03;;;;;;;13.65;8.30;;;;;;;21.28;62.82;100841.53;5043956;27;102613;-50
2021/09/13 10:17:30;;;;;;;9.80;8.10;;;;;;;21.27;62.63;100840.69;5047530;27;104084;-50
2021/09/13 10:19:59;;;;;;;12.00;8.18;;;;;;;21.27;62.61;100837.94;5041142;27;102226;-50
2021/09/13 10:22:28;;;;;;;9.02;8.13;;;;;;;21.27;62.74;100832.41;5047184;27;102778;-50
2021/09/13 10:24:55;;;;;;;8.48;7.50;;;;;;;21.27;62.58;100832.41;5046392;27;102961;-50
2021/09/13 10:27:23;;;;;;;9.38;7.93;;;;;;;21.26;62.52;100836.31;5045708;27;103952;-50
2021/09/13 10:30:08;;;;;;;;;;;;;;;21.27;62.81;100824.09;5043191;27;102178;-50
2021/09/13 10:32:36;;;;;;;9.40;8.48;;;;;;;21.26;62.51;100819.72;5042724;27;102243;-50
2021/09/13 10:35:06;;;;;;;14.27;8.18;;;;;;;21.26;62.62;100825.25;5020573;27;103228;-50
2021/09/13 10:37:39;;;;;;;9.98;8.23;;;;;;;21.25;62.68;100812.56;5045653;27;104021;-50
2021/09/13 10:40:08;;;;;;;9.23;8.20;;;;;;;21.27;62.61;100821.31;5035301;27;102632;-50
2021/09/13 10:42:41;;;;;;;9.18;8.25;;;;;;;21.26;62.65;100816.94;5050066;27;102475;-50
2021/09/13 10:45:27;;;;;;;8.95;8.05;;;;;;;21.26;62.58;100813.38;5040158;27;102278;-51
2021/09/13 10:48:10;;;;;;;9.35;8.38;;;;;;;21.25;62.67;100820.06;5032339;27;107624;-50
2021/09/13 10:50:45;;;;;;;9.05;7.75;;;;;;;21.24;62.67;100816.50;5056308;27;102157;-50
2021/09/13 10:53:32;;;;;;;10.05;8.55;;;;;;;21.24;62.52;100810.97;5053925;27;102025;-50
2021/09/13 10:56:03;;;;;;;8.88;8.02;;;;;;;21.25;62.62;100811.75;5050711;27;102217;-50
2021/09/13 10:58:43;;;;;;;8.68;7.78;;;;;;;21.24;62.48;100805.44;5041398;27;103930;-50
2021/09/13 11:01:21;;;;;;;8.38;7.57;;;;;;;21.24;62.55;100808.19;5042303;27;102470;-50
2021/09/13 11:03:49;;;;;;;9.52;8.63;;;;;;;21.24;62.60;100808.19;5037564;27;102828;-50
2021/09/13 11:06:47;;;;;;;9.50;8.18;;;;;;;21.23;62.49;100803.78;5034228;27;102817;-50
2021/09/13 11:09:21;;;;;;;12.77;8.38;;;;;;;21.23;62.46;100809.31;5041312;27;103900;-50
2021/09/13 11:11:56;;;;;;;10.10;7.80;;;;;;;21.23;62.34;100803.78;5047303;27;102770;-50
2021/09/13 11:14:26;;;;;;;10.52;8.40;;;;;;;21.22;62.47;100804.94;5041551;27;102708;-50
2021/09/13 11:16:54;;;;;;;10.75;9.13;;;;;;;21.22;62.35;100802.19;5042062;27;102228;-50
2021/09/13 11:19:22;;;;;;;9.15;8.20;;;;;;;21.22;62.36;100796.63;5041270;27;102699;-50
2021/09/13 11:21:51;;;;;;;9.55;8.15;;;;;;;21.22;62.25;100806.91;5043434;27;102580;-50
2021/09/13 11:24:20;;;;;;;12.90;7.85;;;;;;;21.21;62.26;100792.25;5053051;27;102499;-49
2021/09/13 11:26:48;;;;;;;9.87;7.80;;;;;;;21.21;62.07;100788.69;5039359;27;103144;-50